KMHL/MHL METAR and TAF weather

Enter ICAO airport designator
Station Type Date Time Source
KMHL METAR 2024/04/15 09:15 UTC NOAA

KMHL 150915Z AUTO 06007KT 10SM CLR 18/07 A2989 RMK AO2


Station Type Date Time Source
KMHL Decoded METAR 2024/04/15 09:15 UTC NOAA

Station name not available
Apr 15, 2024 - 05:15 AM EDT / 2024.04.15 0915 UTC
Wind: from the ENE (060 degrees) at 8 MPH (7 KT):0
Visibility: 10 mile(s):0
Sky conditions: clear
Temperature: 64 F (18 C)
Dew Point: 44 F (7 C)
Relative Humidity: 48%
Pressure (altimeter): 29.89 in. Hg (1012 hPa)
ob: KMHL 150915Z AUTO 06007KT 10SM CLR 18/07 A2989 RMK AO2
cycle: 9

Station Type Date Time Source
KMHL TAF UTC NOAA

Error!

Example: see airport list